Atwater, Minnesota
Current Conditions -  °F | °C
As of 1:33 PM on Monday 22 Dec 2014 (Local Time) from KLJF Reporting Station
Drizzle Drizzle  
Wind Chill: 27°   Ceiling: 400
Heat Index: 36°   Visibility: 3mi
Dew Point: 36°   Wind: 14mph
Humidity: 100%   Direction: 120°ESE
Pressure: 29.54"   Gusts: NA
Location:  45.14°N, 94.78°W
Report Text: KLJF 221933Z AUTO 12012KT 3SM -DZ OVC004 02/02 A2954 RMK AO2
Loading
Personal Weather Stations






























Interactive Weather Map New forecast layout! Learn more

10-Day Weather Forecast

Advertisements
Track Severe Weather on mobile